Time;durP1;ratioP1;P1;durP2;ratioP2;P2;SDS_P1;SDS_P2;PMS_P1;PMS_P2;Temp;Humidity;BMP_temperature;BMP_pressure;BME280_temperature;BME280_humidity;BME280_pressure;Samples;Min_cycle;Max_cycle;Signal;HPM_P1;HPM_P2
2022/09/22 00:01:31;;;;;;;10.50;10.20;;;6.40;99.90;;;;;;5148768;27;20236;-78
2022/09/22 00:04:04;;;;;;;10.63;10.33;;;6.40;99.90;;;;;;5149346;27;20231;-79
2022/09/22 00:06:37;;;;;;;10.50;10.20;;;6.30;99.90;;;;;;5150940;27;20224;-78
2022/09/22 00:09:08;;;;;;;10.60;10.30;;;6.30;99.90;;;;;;5157725;27;20232;-78
2022/09/22 00:11:39;;;;;;;10.27;9.97;;;6.30;99.90;;;;;;5159814;27;20316;-78
2022/09/22 00:14:10;;;;;;;10.70;10.40;;;6.30;99.90;;;;;;5149017;27;20232;-78
2022/09/22 00:16:41;;;;;;;10.67;10.37;;;6.30;99.90;;;;;;5145784;27;20239;-79
2022/09/22 00:19:10;;;;;;;10.80;10.50;;;6.30;99.90;;;;;;5147128;27;20260;-79
2022/09/22 00:21:39;;;;;;;10.60;10.30;;;6.20;99.90;;;;;;5146001;27;20319;-79
2022/09/22 00:24:07;;;;;;;11.07;10.77;;;6.20;99.90;;;;;;5145058;27;20240;-79
2022/09/22 00:26:37;;;;;;;10.63;10.33;;;6.10;99.90;;;;;;5144776;27;20224;-79
2022/09/22 00:29:06;;;;;;;10.40;10.10;;;6.10;99.90;;;;;;5145840;27;20240;-79
2022/09/22 00:31:34;;;;;;;10.50;10.20;;;6.10;99.90;;;;;;5153605;27;20227;-79
2022/09/22 00:34:01;;;;;;;11.00;10.70;;;6.10;99.90;;;;;;5147530;27;20284;-79
2022/09/22 00:36:30;;;;;;;10.67;10.37;;;6.10;99.90;;;;;;5146267;27;20235;-79
2022/09/22 00:38:59;;;;;;;10.70;10.40;;;6.10;99.90;;;;;;5146269;27;20255;-78
2022/09/22 00:41:29;;;;;;;10.93;10.63;;;6.10;99.90;;;;;;5138112;27;20227;-79
2022/09/22 00:44:37;;;;;;;10.80;10.50;;;6.10;99.90;;;;;;5144921;27;20242;-79
2022/09/22 00:47:33;;;;;;;10.60;10.30;;;6.10;99.90;;;;;;5144925;27;20273;-79
2022/09/22 00:50:12;;;;;;;10.73;10.43;;;6.10;99.90;;;;;;5144876;27;20232;-78
2022/09/22 00:52:45;;;;;;;11.10;10.70;;;6.00;99.90;;;;;;5145047;27;20234;-79
2022/09/22 00:55:20;;;;;;;10.90;10.60;;;6.00;99.90;;;;;;5143681;27;20247;-78
2022/09/22 00:57:49;;;;;;;10.53;10.23;;;5.90;99.90;;;;;;5144362;27;20226;-79
2022/09/22 01:00:18;;;;;;;10.60;10.30;;;5.90;99.90;;;;;;5144581;27;20236;-79
2022/09/22 01:02:48;;;;;;;10.60;10.30;;;5.90;99.90;;;;;;5145027;27;20234;-79
2022/09/22 01:05:16;;;;;;;10.60;10.30;;;5.90;99.90;;;;;;5143367;27;20258;-79
2022/09/22 01:07:44;;;;;;;10.57;10.27;;;5.90;99.90;;;;;;5144015;27;20238;-79
2022/09/22 01:10:13;;;;;;;10.80;10.50;;;5.90;99.90;;;;;;5144592;27;20228;-79
2022/09/22 01:13:14;;;;;;;10.70;10.40;;;5.90;99.90;;;;;;5145132;27;20234;-79
2022/09/22 01:15:54;;;;;;;10.77;10.47;;;5.80;99.90;;;;;;5142473;27;20232;-79
2022/09/22 01:18:33;;;;;;;10.67;10.37;;;5.80;99.90;;;;;;5143465;27;20238;-79
2022/09/22 01:21:26;;;;;;;10.37;10.07;;;5.80;99.90;;;;;;5143593;27;20330;-78
2022/09/22 01:24:26;;;;;;;10.40;10.10;;;5.80;99.90;;;;;;5143478;27;20290;-79
2022/09/22 01:27:28;;;;;;;10.60;10.30;;;5.70;99.90;;;;;;5143128;27;20232;-78
2022/09/22 01:30:25;;;;;;;10.77;10.47;;;5.70;99.90;;;;;;5143839;27;20224;-78
2022/09/22 01:33:21;;;;;;;11.20;10.80;;;5.60;99.90;;;;;;5143294;27;20232;-79
2022/09/22 01:36:18;;;;;;;10.83;10.53;;;5.60;99.90;;;;;;5147761;27;20232;-78
2022/09/22 01:38:57;;;;;;;10.77;10.47;;;5.60;99.90;;;;;;5145835;27;20255;-79
2022/09/22 01:41:43;;;;;;;10.67;10.37;;;5.50;99.90;;;;;;5145206;27;20214;-79
2022/09/22 01:44:16;;;;;;;10.77;10.47;;;5.50;99.90;;;;;;5144190;27;20710;-79
2022/09/22 01:46:54;;;;;;;11.23;10.83;;;5.50;99.90;;;;;;5144339;27;20223;-79
2022/09/22 01:49:24;;;;;;;10.80;10.50;;;5.50;99.90;;;;;;5144462;27;20355;-79
2022/09/22 01:51:56;;;;;;;11.27;10.87;;;5.50;99.90;;;;;;5143872;27;20285;-78
2022/09/22 01:54:29;;;;;;;11.23;10.83;;;5.40;99.90;;;;;;5143517;27;20242;-79
2022/09/22 01:57:04;;;;;;;10.77;10.47;;;5.40;99.90;;;;;;5143820;27;20232;-79
2022/09/22 01:59:37;;;;;;;10.80;10.50;;;5.40;99.90;;;;;;5144014;27;20273;-78
2022/09/22 02:02:14;;;;;;;11.20;10.80;;;5.30;99.90;;;;;;5143786;27;20220;-78
2022/09/22 02:04:46;;;;;;;10.80;10.50;;;5.30;99.90;;;;;;5144876;27;20235;-78
2022/09/22 02:07:23;;;;;;;10.90;10.60;;;5.30;99.90;;;;;;5144993;27;20228;-79
2022/09/22 02:09:50;;;;;;;11.00;10.70;;;5.30;99.90;;;;;;5143771;27;20231;-79
2022/09/22 02:12:18;;;;;;;11.23;10.83;;;5.20;99.90;;;;;;5143469;27;20224;-79
2022/09/22 02:14:46;;;;;;;11.00;10.70;;;5.20;99.90;;;;;;5142262;27;20296;-79
2022/09/22 02:17:16;;;;;;;11.10;10.70;;;5.20;99.90;;;;;;5143796;27;20259;-79
2022/09/22 02:19:45;;;;;;;11.10;10.70;;;5.10;99.90;;;;;;5143280;27;20235;-79
2022/09/22 02:22:13;;;;;;;10.97;10.63;;;5.10;99.90;;;;;;5143413;27;20224;-79
2022/09/22 02:24:43;;;;;;;11.10;10.70;;;5.00;99.90;;;;;;5143190;27;20243;-78
2022/09/22 02:27:17;;;;;;;10.90;10.60;;;5.00;99.90;;;;;;5151755;27;20232;-78
2022/09/22 02:29:50;;;;;;;10.70;10.40;;;4.90;99.90;;;;;;5154054;27;20288;-78
2022/09/22 02:32:20;;;;;;;10.90;10.60;;;4.90;99.90;;;;;;5159648;27;20213;-78
2022/09/22 02:34:48;;;;;;;10.90;10.60;;;4.90;99.90;;;;;;5160072;27;20244;-78
2022/09/22 02:37:26;;;;;;;10.70;10.40;;;4.90;99.90;;;;;;5160395;27;20212;-78
2022/09/22 02:40:04;;;;;;;10.60;10.30;;;4.90;99.90;;;;;;5160596;27;20236;-78
2022/09/22 02:42:38;;;;;;;10.80;10.50;;;4.90;99.90;;;;;;5160464;27;20275;-78
2022/09/22 02:45:13;;;;;;;10.73;10.43;;;4.90;99.90;;;;;;5160049;27;20223;-77
2022/09/22 02:47:47;;;;;;;11.10;10.70;;;4.90;99.90;;;;;;5160403;27;20231;-78
2022/09/22 02:50:19;;;;;;;11.10;10.70;;;4.90;99.90;;;;;;5159974;27;20255;-78
2022/09/22 02:52:46;;;;;;;10.93;10.63;;;4.90;99.90;;;;;;5160188;27;20219;-78
2022/09/22 02:55:14;;;;;;;11.20;10.80;;;4.80;99.90;;;;;;5159744;27;20238;-78
2022/09/22 02:57:42;;;;;;;11.20;10.80;;;4.80;99.90;;;;;;5162657;27;20258;-78
2022/09/22 03:00:12;;;;;;;10.70;10.40;;;4.80;99.90;;;;;;5159544;27;20246;-79
2022/09/22 03:02:41;;;;;;;10.70;10.40;;;4.80;99.90;;;;;;5157290;27;20220;-79
2022/09/22 03:05:09;;;;;;;10.60;10.30;;;4.80;99.90;;;;;;5156020;27;20319;-78
2022/09/22 03:07:37;;;;;;;10.90;10.60;;;4.80;99.90;;;;;;5156819;27;20227;-79
2022/09/22 03:10:06;;;;;;;10.50;10.20;;;4.80;99.90;;;;;;5155449;27;20334;-79
2022/09/22 03:12:34;;;;;;;10.63;10.33;;;4.80;99.90;;;;;;5152908;27;20224;-78
2022/09/22 03:15:01;;;;;;;10.53;10.23;;;4.80;99.90;;;;;;5151191;27;20227;-78
2022/09/22 03:17:30;;;;;;;10.37;10.07;;;4.80;99.90;;;;;;5151107;27;20298;-79
2022/09/22 03:19:59;;;;;;;10.30;10.00;;;4.80;99.90;;;;;;5149511;27;20307;-78
2022/09/22 03:22:27;;;;;;;10.67;10.37;;;4.80;99.90;;;;;;5149523;27;20295;-80
2022/09/22 03:24:54;;;;;;;10.50;10.20;;;4.90;99.90;;;;;;5148399;27;20232;-78
2022/09/22 03:27:22;;;;;;;10.60;10.30;;;4.90;99.90;;;;;;5148498;27;20232;-79
2022/09/22 03:29:49;;;;;;;10.70;10.40;;;4.80;99.90;;;;;;5148567;27;20224;-79
2022/09/22 03:32:17;;;;;;;10.63;10.33;;;4.80;99.90;;;;;;5148527;27;20224;-79
2022/09/22 03:34:44;;;;;;;10.40;10.10;;;4.80;99.90;;;;;;5147626;27;20231;-79
2022/09/22 03:37:13;;;;;;;10.50;10.20;;;4.80;99.90;;;;;;5147181;27;20244;-78
2022/09/22 03:39:41;;;;;;;10.40;10.10;;;4.70;99.90;;;;;;5147150;27;20246;-79
2022/09/22 03:42:08;;;;;;;10.27;9.97;;;4.80;99.90;;;;;;5147314;27;20307;-79
2022/09/22 03:44:36;;;;;;;9.80;9.50;;;4.80;99.90;;;;;;5146078;27;20228;-79
2022/09/22 03:47:04;;;;;;;10.30;10.00;;;4.80;99.90;;;;;;5146744;27;20232;-79
2022/09/22 03:49:32;;;;;;;10.57;10.27;;;4.80;99.90;;;;;;5147518;27;20282;-79
2022/09/22 03:51:59;;;;;;;10.17;9.87;;;4.80;99.90;;;;;;5145815;27;20616;-79
2022/09/22 03:54:29;;;;;;;10.17;9.87;;;4.80;99.90;;;;;;5145377;27;20235;-79
2022/09/22 03:56:56;;;;;;;10.10;9.80;;;4.70;99.90;;;;;;5145876;27;20232;-79
2022/09/22 03:59:24;;;;;;;10.13;9.83;;;4.80;99.90;;;;;;5145298;27;20757;-79
2022/09/22 04:01:51;;;;;;;10.03;9.73;;;4.70;99.90;;;;;;5145604;27;20235;-79
2022/09/22 04:04:19;;;;;;;10.33;10.03;;;4.80;99.90;;;;;;5145015;27;20228;-78
2022/09/22 04:06:46;;;;;;;10.37;10.07;;;4.70;99.90;;;;;;5145098;27;20296;-79
2022/09/22 04:09:16;;;;;;;10.43;10.13;;;4.70;99.90;;;;;;5146100;27;20236;-79
2022/09/22 04:11:45;;;;;;;10.43;10.13;;;4.70;99.90;;;;;;5145078;27;20219;-79
2022/09/22 04:14:13;;;;;;;10.57;10.27;;;4.70;99.90;;;;;;5144885;27;20327;-78
2022/09/22 04:16:41;;;;;;;10.67;10.37;;;4.60;99.90;;;;;;5144824;27;20315;-79
2022/09/22 04:19:09;;;;;;;10.40;10.10;;;4.60;99.90;;;;;;5145037;27;20228;-79
2022/09/22 04:21:36;;;;;;;10.60;10.30;;;4.50;99.90;;;;;;5145397;27;20224;-79
2022/09/22 04:24:06;;;;;;;10.30;10.00;;;4.60;99.90;;;;;;5146225;27;20238;-79
2022/09/22 04:26:33;;;;;;;10.40;10.10;;;4.50;99.90;;;;;;5144709;27;20266;-79
2022/09/22 04:29:02;;;;;;;10.33;10.03;;;4.50;99.90;;;;;;5145029;27;20221;-78
2022/09/22 04:31:30;;;;;;;10.80;10.50;;;4.50;99.90;;;;;;5145262;27;20227;-79
2022/09/22 04:33:57;;;;;;;10.60;10.30;;;4.50;99.90;;;;;;5144718;27;20232;-79
2022/09/22 04:36:25;;;;;;;10.83;10.53;;;4.50;99.90;;;;;;5143689;27;20730;-80
2022/09/22 04:38:54;;;;;;;11.00;10.70;;;4.40;99.90;;;;;;5144723;27;20234;-81
2022/09/22 04:41:21;;;;;;;10.90;10.60;;;4.40;99.90;;;;;;5144773;27;20233;-79
2022/09/22 04:43:49;;;;;;;11.20;10.80;;;4.30;99.90;;;;;;5145254;27;20235;-80
2022/09/22 04:46:20;;;;;;;11.10;10.70;;;4.30;99.90;;;;;;5132300;22;20238;-80
2022/09/22 04:48:49;;;;;;;11.37;10.97;;;4.30;99.90;;;;;;5081674;28;20299;-80
2022/09/22 04:51:18;;;;;;;11.50;11.10;;;4.20;99.90;;;;;;5081789;28;20233;-80
2022/09/22 04:53:48;;;;;;;11.10;10.70;;;4.30;99.90;;;;;;5090420;28;20229;-79
2022/09/22 04:56:17;;;;;;;11.37;10.97;;;4.20;99.90;;;;;;5090379;28;20231;-80
2022/09/22 04:58:47;;;;;;;11.37;10.97;;;4.20;99.90;;;;;;5090137;28;20238;-80
2022/09/22 05:01:16;;;;;;;11.27;10.87;;;4.20;99.90;;;;;;5083263;28;20282;-79
2022/09/22 05:03:54;;;;;;;11.57;11.17;;;4.20;99.90;;;;;;5082248;28;20253;-80
2022/09/22 05:06:25;;;;;;;11.20;10.80;;;4.20;99.90;;;;;;5081677;28;20238;-80
2022/09/22 05:08:54;;;;;;;10.60;10.30;;;4.10;99.90;;;;;;5081395;28;20257;-80
2022/09/22 05:11:23;;;;;;;10.80;10.50;;;4.20;99.90;;;;;;5081975;28;20210;-80
2022/09/22 05:13:52;;;;;;;10.50;10.20;;;4.10;99.90;;;;;;5082283;28;20237;-79
2022/09/22 05:16:22;;;;;;;10.57;10.27;;;4.20;99.90;;;;;;5081329;28;20421;-79
2022/09/22 05:19:00;;;;;;;10.37;10.07;;;4.20;99.90;;;;;;5080618;28;20240;-79
2022/09/22 05:21:29;;;;;;;10.80;10.50;;;4.20;99.90;;;;;;5082071;28;20264;-79
2022/09/22 05:23:59;;;;;;;10.60;10.30;;;4.30;99.90;;;;;;5081680;28;20238;-80
2022/09/22 05:26:29;;;;;;;10.33;10.03;;;4.30;99.90;;;;;;5080360;28;20234;-79
2022/09/22 05:28:58;;;;;;;10.10;9.80;;;4.40;99.90;;;;;;5081027;28;20253;-79
2022/09/22 05:31:27;;;;;;;10.40;10.10;;;4.40;99.90;;;;;;5080575;28;20233;-80
2022/09/22 05:34:05;;;;;;;10.40;10.10;;;4.40;99.90;;;;;;5080903;28;20230;-79
2022/09/22 05:36:35;;;;;;;10.30;10.00;;;4.40;99.90;;;;;;5079940;28;20317;-80
2022/09/22 05:39:05;;;;;;;10.80;10.50;;;4.40;99.90;;;;;;5080314;28;20273;-80
2022/09/22 05:41:34;;;;;;;10.60;10.30;;;4.50;99.90;;;;;;5081031;28;20222;-80
2022/09/22 05:44:03;;;;;;;10.57;10.27;;;4.40;99.90;;;;;;5081177;28;20257;-80
2022/09/22 05:46:31;;;;;;;10.90;10.60;;;4.50;99.90;;;;;;5079598;28;20242;-79
2022/09/22 05:49:05;;;;;;;10.60;10.30;;;4.50;99.90;;;;;;5080431;28;20235;-80
2022/09/22 05:51:32;;;;;;;10.60;10.30;;;4.60;99.90;;;;;;5080003;28;20262;-80
2022/09/22 05:54:02;;;;;;;10.67;10.37;;;4.60;99.90;;;;;;5079978;28;20234;-79
2022/09/22 05:56:32;;;;;;;10.70;10.40;;;4.60;99.90;;;;;;5079209;28;20230;-79
2022/09/22 05:59:00;;;;;;;10.57;10.27;;;4.70;99.90;;;;;;5079917;28;20263;-79
2022/09/22 06:01:29;;;;;;;10.77;10.47;;;4.70;99.90;;;;;;5080254;28;20281;-79
2022/09/22 06:03:58;;;;;;;10.67;10.37;;;4.70;99.90;;;;;;5080692;28;20234;-80
2022/09/22 06:06:37;;;;;;;10.50;10.20;;;4.70;99.90;;;;;;5079043;28;20241;-79
2022/09/22 06:09:06;;;;;;;10.40;10.10;;;4.70;99.90;;;;;;5079945;28;20234;-80
2022/09/22 06:11:36;;;;;;;10.67;10.37;;;4.80;99.90;;;;;;5079611;28;20258;-79
2022/09/22 06:14:05;;;;;;;10.63;10.33;;;4.90;99.90;;;;;;5080471;28;20252;-79
2022/09/22 06:16:34;;;;;;;10.53;10.23;;;4.90;99.90;;;;;;5078973;28;20279;-80
2022/09/22 06:19:05;;;;;;;10.90;10.60;;;5.00;99.90;;;;;;5079919;28;20329;-79
2022/09/22 06:21:36;;;;;;;11.10;10.70;;;5.00;99.90;;;;;;5079683;28;20302;-79
2022/09/22 06:24:03;;;;;;;11.23;10.83;;;5.00;99.90;;;;;;5080042;28;20317;-79
2022/09/22 06:26:32;;;;;;;11.47;11.07;;;5.00;99.90;;;;;;5079210;28;20694;-79
2022/09/22 06:29:02;;;;;;;11.30;10.90;;;5.00;99.90;;;;;;5079493;28;20253;-79
2022/09/22 06:31:31;;;;;;;10.80;10.50;;;5.00;99.90;;;;;;5082203;28;20230;-80
2022/09/22 06:34:00;;;;;;;10.60;10.30;;;5.00;99.90;;;;;;5083402;28;20759;-79
2022/09/22 06:36:30;;;;;;;10.90;10.60;;;5.10;99.90;;;;;;5082122;28;20265;-80
2022/09/22 06:44:45;;;;;;;11.10;10.80;;;5.30;99.90;;;;;;5083627;28;20297;-85
2022/09/22 06:50:04;;;;;;;10.87;10.57;;;5.50;99.90;;;;;;5084300;28;20325;-83
2022/09/22 06:52:32;;;;;;;10.87;10.57;;;5.50;99.90;;;;;;5084451;28;20242;-82
2022/09/22 06:55:09;;;;;;;10.83;10.53;;;5.50;99.90;;;;;;5084406;28;20226;-82
2022/09/22 06:57:38;;;;;;;10.50;10.20;;;5.60;99.90;;;;;;5084927;28;20270;-84
2022/09/22 07:00:16;;;;;;;10.40;10.10;;;5.60;99.90;;;;;;5085296;28;20226;-86
2022/09/22 07:02:46;;;;;;;10.60;10.30;;;5.70;99.90;;;;;;5085155;28;20229;-83
2022/09/22 07:05:17;;;;;;;10.50;10.20;;;5.80;99.90;;;;;;5084049;28;20234;-84
2022/09/22 07:07:45;;;;;;;10.33;10.03;;;5.80;99.90;;;;;;5093722;28;20230;-84
2022/09/22 07:10:22;;;;;;;10.10;9.80;;;5.90;99.90;;;;;;5084978;28;20264;-82
2022/09/22 07:12:53;;;;;;;10.40;10.10;;;6.00;99.90;;;;;;5084410;28;20254;-82
2022/09/22 07:15:22;;;;;;;10.40;10.10;;;6.00;99.90;;;;;;5083750;28;20234;-82
2022/09/22 07:17:52;;;;;;;10.27;9.97;;;6.10;99.90;;;;;;5084859;28;20241;-84
2022/09/22 07:20:20;;;;;;;10.30;10.00;;;6.10;99.90;;;;;;5084480;28;20372;-84
2022/09/22 07:22:50;;;;;;;10.70;10.40;;;6.20;99.90;;;;;;5089996;28;20316;-84
2022/09/22 07:28:11;;;;;;;10.70;10.40;;;6.40;99.90;;;;;;5101645;28;20233;-84
2022/09/22 07:30:39;;;;;;;10.80;10.50;;;6.50;99.90;;;;;;5101601;28;20233;-82
2022/09/22 07:33:06;;;;;;;11.10;10.80;;;6.60;99.90;;;;;;5100787;28;20234;-82
2022/09/22 07:35:36;;;;;;;10.97;10.67;;;6.70;99.90;;;;;;5086110;28;20293;-85
2022/09/22 07:38:04;;;;;;;11.03;10.73;;;6.70;99.90;;;;;;5083763;28;20234;-84
2022/09/22 07:40:44;;;;;;;11.33;10.93;;;6.80;99.90;;;;;;5082649;28;20241;-84
2022/09/22 07:43:12;;;;;;;11.80;11.40;;;6.90;99.90;;;;;;5081518;28;20222;-84
2022/09/22 07:45:41;;;;;;;11.57;11.17;;;7.10;99.90;;;;;;5081476;28;20298;-85
2022/09/22 07:50:58;;;;;;;11.37;10.97;;;7.50;99.90;;;;;;5083789;28;20210;-83
2022/09/22 07:53:27;;;;;;;11.43;11.03;;;7.50;99.90;;;;;;5082697;28;20226;-83
2022/09/22 07:56:14;;;;;;;10.70;10.40;;;7.60;99.90;;;;;;5083106;28;20309;-84
2022/09/22 07:58:46;;;;;;;10.70;10.40;;;7.60;99.90;;;;;;5084607;28;20234;-81
2022/09/22 08:01:15;;;;;;;10.67;10.37;;;7.70;99.90;;;;;;5083343;28;20279;-82
2022/09/22 08:03:45;;;;;;;10.97;10.67;;;7.90;99.90;;;;;;5082740;28;20226;-82
2022/09/22 08:06:14;;;;;;;10.77;10.47;;;8.00;99.90;;;;;;5082385;28;20299;-83
2022/09/22 08:08:45;;;;;;;10.67;10.37;;;8.10;99.90;;;;;;5083681;28;20322;-84
2022/09/22 08:11:22;;;;;;;11.00;10.70;;;8.20;99.90;;;;;;5084314;28;20235;-84
2022/09/22 08:13:59;;;;;;;10.60;10.30;;;8.30;99.90;;;;;;5084137;28;20218;-83
2022/09/22 08:16:37;;;;;;;10.70;10.40;;;8.50;99.90;;;;;;5082685;28;20229;-87
2022/09/22 08:19:09;;;;;;;10.47;10.17;;;8.70;99.90;;;;;;5082959;28;20226;-83
2022/09/22 08:21:47;;;;;;;10.20;9.90;;;8.80;99.90;;;;;;5082496;28;20249;-86
2022/09/22 08:54:10;;;;;;;;;;;;;;;;;;;;;
2022/09/22 09:34:58;;;;;;;;;;;;;;;;;;;;;
2022/09/22 09:44:44;;;;;;;11.00;10.70;;;16.20;99.90;;;;;;4883533;29;20388;-83
2022/09/22 09:48:22;;;;;;;11.02;10.73;;;16.40;99.90;;;;;;5084574;22;20241;-84
2022/09/22 10:09:02;;;;;;;10.63;10.32;;;17.20;99.90;;;;;;5084019;28;20236;-83
2022/09/22 10:43:33;;;;;;;10.80;10.50;;;20.40;99.90;;;;;;6156067;23;20207;-84
2022/09/22 10:46:27;;;;;;;10.88;10.57;;;21.00;99.90;;;;;;6093417;22;1359892;-80
2022/09/22 10:49:04;;;;;;;10.93;10.63;;;20.90;99.90;;;;;;6300852;22;20225;-82
2022/09/22 10:52:00;;;;;;;11.10;10.80;;;20.70;99.90;;;;;;6301531;22;20195;-82
2022/09/22 10:55:02;;;;;;;11.10;10.80;;;20.60;99.90;;;;;;6300839;22;20193;-82
2022/09/22 10:57:52;;;;;;;10.82;10.52;;;20.70;99.90;;;;;;6293799;22;20211;-81
2022/09/22 11:00:22;;;;;;;11.38;11.02;;;21.10;99.90;;;;;;6304520;22;20198;-81
2022/09/22 11:03:46;;;;;;;11.15;10.85;;;21.40;99.90;;;;;;6302320;22;20216;-82
2022/09/22 11:12:37;;;;;;;11.20;10.90;;;21.90;99.90;;;;;;6301027;22;20185;-82
2022/09/22 11:15:34;;;;;;;11.10;10.80;;;22.20;99.90;;;;;;6300653;22;20189;-82
2022/09/22 11:18:29;;;;;;;11.13;10.82;;;22.00;99.90;;;;;;6301724;22;20189;-82
2022/09/22 11:21:16;;;;;;;10.93;10.63;;;21.70;99.90;;;;;;6301598;22;20268;-82
2022/09/22 11:24:20;;;;;;;10.90;10.60;;;21.50;99.90;;;;;;6302350;22;20244;-82
2022/09/22 11:26:50;;;;;;;10.90;10.60;;;21.10;99.90;;;;;;6301670;22;20259;-82
2022/09/22 11:30:03;;;;;;;10.90;10.60;;;21.20;99.90;;;;;;6302532;22;20220;-82
2022/09/22 11:33:01;;;;;;;11.18;10.88;;;21.50;99.90;;;;;;6277972;22;20247;-82
2022/09/22 11:36:14;;;;;;;10.98;10.68;;;21.20;99.90;;;;;;6299737;22;20201;-82
2022/09/22 11:39:20;;;;;;;11.13;10.82;;;20.70;99.90;;;;;;6285613;22;20189;-82
2022/09/22 11:42:03;;;;;;;10.98;10.68;;;21.00;99.90;;;;;;6295977;22;20193;-82
2022/09/22 11:44:42;;;;;;;11.07;10.77;;;21.60;99.90;;;;;;6301028;22;20196;-82
2022/09/22 11:47:38;;;;;;;11.00;10.70;;;22.00;99.90;;;;;;6296880;22;20214;-82
2022/09/22 11:50:34;;;;;;;11.00;10.70;;;22.40;99.90;;;;;;6295273;22;20300;-82
2022/09/22 11:53:32;;;;;;;11.20;10.90;;;22.80;99.90;;;;;;6300126;22;20194;-82
2022/09/22 11:56:32;;;;;;;11.10;10.80;;;23.20;99.90;;;;;;6299103;22;20225;-82
2022/09/22 11:59:06;;;;;;;10.95;10.65;;;22.50;99.90;;;;;;6294278;22;20249;-82
2022/09/22 12:01:39;;;;;;;10.90;10.60;;;21.70;99.90;;;;;;6292962;22;20197;-82
2022/09/22 12:04:20;;;;;;;10.90;10.60;;;21.40;99.90;;;;;;6292533;22;20189;-83
2022/09/22 12:06:51;;;;;;;11.13;10.82;;;21.50;99.90;;;;;;6292610;22;20267;-82
2022/09/22 12:09:37;;;;;;;11.05;10.75;;;21.90;99.90;;;;;;6292022;22;20193;-83
2022/09/22 12:12:07;;;;;;;10.73;10.43;;;22.30;99.90;;;;;;6291306;22;20269;-83
2022/09/22 12:14:37;;;;;;;10.55;10.25;;;22.80;99.90;;;;;;6290970;22;20280;-83
2022/09/22 12:17:14;;;;;;;10.70;10.40;;;22.50;99.90;;;;;;6292736;22;20288;-82
2022/09/22 12:20:01;;;;;;;10.88;10.57;;;22.20;99.90;;;;;;6291417;22;20280;-82
2022/09/22 12:22:33;;;;;;;10.90;10.60;;;21.80;99.90;;;;;;6298403;22;20249;-80
2022/09/22 12:25:02;;;;;;;10.70;10.40;;;21.50;99.90;;;;;;6303613;22;20189;-80
2022/09/22 12:27:31;;;;;;;10.90;10.60;;;21.20;99.90;;;;;;6307602;22;20213;-79
2022/09/22 12:30:08;;;;;;;10.75;10.45;;;20.70;99.90;;;;;;6312187;22;20241;-81
2022/09/22 12:32:38;;;;;;;10.80;10.50;;;20.40;99.90;;;;;;6302942;22;20249;-82
2022/09/22 12:35:07;;;;;;;10.60;10.30;;;20.10;99.90;;;;;;6295292;22;20190;-83
2022/09/22 12:37:38;;;;;;;10.60;10.30;;;19.70;99.90;;;;;;6294037;22;20248;-82
2022/09/22 12:40:29;;;;;;;10.43;10.13;;;19.70;99.90;;;;;;6294433;22;20238;-82
2022/09/22 12:42:59;;;;;;;10.68;10.38;;;19.90;99.90;;;;;;6293869;22;20194;-82
2022/09/22 12:45:33;;;;;;;10.70;10.40;;;20.40;99.90;;;;;;6291011;22;20193;-82
2022/09/22 12:48:04;;;;;;;10.40;10.10;;;21.00;99.90;;;;;;6291784;22;20237;-82
2022/09/22 12:50:40;;;;;;;10.63;10.32;;;21.50;99.90;;;;;;6292261;22;20194;-83
2022/09/22 12:53:25;;;;;;;10.98;10.68;;;21.70;99.90;;;;;;6291573;22;20192;-82
2022/09/22 12:55:56;;;;;;;10.85;10.55;;;21.80;99.90;;;;;;6290084;22;20257;-82
2022/09/22 12:58:44;;;;;;;10.60;10.30;;;22.10;99.90;;;;;;6291563;22;20197;-82
2022/09/22 13:01:32;;;;;;;10.65;10.35;;;22.80;99.90;;;;;;6291372;22;20252;-82
2022/09/22 13:04:18;;;;;;;10.73;10.43;;;22.80;99.90;;;;;;6291482;22;20216;-81
2022/09/22 13:06:55;;;;;;;11.10;10.80;;;23.20;99.90;;;;;;6291188;22;20201;-82
2022/09/22 13:09:25;;;;;;;11.00;10.70;;;23.50;99.90;;;;;;6289879;22;20193;-81
2022/09/22 13:12:35;;;;;;;10.77;10.48;;;23.10;99.90;;;;;;6291944;22;20189;-82
2022/09/22 13:15:26;;;;;;;10.80;10.50;;;22.30;99.90;;;;;;6290439;22;20276;-80
2022/09/22 13:17:55;;;;;;;10.77;10.48;;;22.00;99.90;;;;;;6291587;22;20224;-81
2022/09/22 13:20:26;;;;;;;10.73;10.43;;;22.20;99.90;;;;;;6291574;22;20200;-82
2022/09/22 13:22:55;;;;;;;10.75;10.45;;;22.50;99.90;;;;;;6290303;22;20248;-81
2022/09/22 13:25:33;;;;;;;10.93;10.63;;;22.90;99.90;;;;;;6290097;22;20229;-81
2022/09/22 13:28:13;;;;;;;11.25;10.95;;;23.20;99.90;;;;;;6289704;22;20225;-81
2022/09/22 13:30:43;;;;;;;10.82;10.52;;;23.20;99.90;;;;;;6290658;22;20220;-81
2022/09/22 13:33:24;;;;;;;11.20;10.90;;;22.90;99.90;;;;;;6290018;22;20281;-80
2022/09/22 13:36:07;;;;;;;10.90;10.60;;;22.70;99.90;;;;;;6289444;22;20228;-81
2022/09/22 13:38:49;;;;;;;10.90;10.60;;;22.40;99.90;;;;;;6289477;22;20237;-81
2022/09/22 13:41:21;;;;;;;10.82;10.52;;;22.30;99.90;;;;;;6290734;22;20257;-81
2022/09/22 13:43:58;;;;;;;10.68;10.38;;;22.00;99.90;;;;;;6289818;22;20198;-81
2022/09/22 13:46:34;;;;;;;10.70;10.40;;;21.50;99.90;;;;;;6289563;22;20240;-84
2022/09/22 13:49:54;;;;;;;10.52;10.23;;;21.20;99.90;;;;;;6289685;22;20224;-83
2022/09/22 13:52:50;;;;;;;10.32;10.02;;;20.80;99.90;;;;;;6192524;23;20203;-87
2022/09/22 13:56:41;;;;;;;10.70;10.40;;;20.30;99.90;;;;;;6186959;23;20222;-82
2022/09/22 13:59:43;;;;;;;10.65;10.35;;;20.00;99.90;;;;;;6196867;23;20198;-84
2022/09/22 14:02:48;;;;;;;10.80;10.50;;;19.90;99.90;;;;;;6196633;23;20217;-85
2022/09/22 14:05:27;;;;;;;10.90;10.60;;;19.80;99.90;;;;;;6105313;23;20204;-82
2022/09/22 14:12:03;;;;;;;;;;;;;;;;;;;;;
2022/09/22 14:14:38;;;;;;;11.05;10.75;;;20.30;99.90;;;;;;6165316;23;20203;-84
2022/09/22 14:24:05;;;;;;;11.10;10.80;;;22.00;99.90;;;;;;6306415;22;20213;-87
2022/09/22 14:30:18;;;;;;;10.73;10.43;;;23.10;99.90;;;;;;6187659;22;20596;-87
2022/09/22 14:32:56;;;;;;;10.70;10.40;;;23.50;99.90;;;;;;6287826;22;20263;-81
2022/09/22 14:35:36;;;;;;;10.60;10.30;;;23.60;99.90;;;;;;6288150;22;20193;-83
2022/09/22 14:38:07;;;;;;;10.80;10.50;;;23.70;99.90;;;;;;6288885;22;20189;-84
2022/09/22 14:40:38;;;;;;;11.00;10.70;;;23.80;99.90;;;;;;6290969;22;20197;-84
2022/09/22 14:43:22;;;;;;;10.90;10.60;;;24.30;99.90;;;;;;6293845;22;20213;-84
2022/09/22 14:46:00;;;;;;;11.40;11.10;;;24.80;99.90;;;;;;6294614;22;20254;-84
2022/09/22 14:48:56;;;;;;;11.07;10.77;;;25.30;99.90;;;;;;6308084;22;20204;-84
2022/09/22 14:51:26;;;;;;;11.23;10.93;;;25.60;99.90;;;;;;6311066;22;20208;-84
2022/09/22 14:53:57;;;;;;;11.18;10.88;;;25.80;99.90;;;;;;6311011;22;20200;-83
2022/09/22 14:56:27;;;;;;;10.98;10.68;;;25.60;99.90;;;;;;6310028;22;20257;-83
2022/09/22 15:02:30;;;;;;;10.93;10.63;;;25.30;99.90;;;;;;6310045;22;20192;-82
2022/09/22 15:04:54;;;;;;;11.13;10.82;;;25.80;99.90;;;;;;6292101;22;20213;-83
2022/09/22 15:07:32;;;;;;;11.20;10.90;;;26.10;99.90;;;;;;6288964;22;20288;-82
2022/09/22 15:10:03;;;;;;;10.77;10.48;;;25.80;99.90;;;;;;6289038;22;20249;-82
2022/09/22 15:12:39;;;;;;;10.90;10.60;;;25.50;99.90;;;;;;6287676;22;20213;-83
2022/09/22 15:15:25;;;;;;;10.90;10.60;;;25.30;99.90;;;;;;6288685;22;20200;-84
2022/09/22 15:18:15;;;;;;;10.90;10.60;;;25.10;99.90;;;;;;6289342;22;20247;-83
2022/09/22 15:21:01;;;;;;;11.00;10.70;;;24.40;99.90;;;;;;6288985;22;20190;-83
2022/09/22 15:23:33;;;;;;;10.70;10.40;;;24.00;99.90;;;;;;6289695;22;20248;-81
2022/09/22 15:26:05;;;;;;;11.10;10.80;;;23.60;99.90;;;;;;6289513;22;20206;-83
2022/09/22 15:28:38;;;;;;;11.20;10.90;;;23.40;99.90;;;;;;6290003;22;20190;-83
2022/09/22 15:31:07;;;;;;;11.32;11.02;;;23.60;99.90;;;;;;6290368;22;20260;-82
2022/09/22 15:33:35;;;;;;;11.45;11.15;;;23.60;99.90;;;;;;6284934;22;20276;-82
2022/09/22 15:36:15;;;;;;;11.50;11.20;;;23.50;99.90;;;;;;6289298;22;20205;-83
2022/09/22 15:38:44;;;;;;;11.38;11.07;;;23.10;99.90;;;;;;6289535;22;20284;-83
2022/09/22 15:41:15;;;;;;;11.15;10.85;;;22.90;99.90;;;;;;6289632;22;20284;-82
2022/09/22 15:43:43;;;;;;;10.90;10.60;;;22.50;99.90;;;;;;6289589;22;20249;-83
2022/09/22 15:46:32;;;;;;;10.70;10.40;;;22.20;99.90;;;;;;6288925;22;20209;-82
2022/09/22 15:49:02;;;;;;;10.60;10.30;;;22.10;99.90;;;;;;6292648;22;20189;-80
2022/09/22 15:51:32;;;;;;;10.90;10.60;;;22.10;99.90;;;;;;6293463;22;20186;-80
2022/09/22 15:53:59;;;;;;;11.00;10.70;;;22.10;99.90;;;;;;6292489;22;20224;-81
2022/09/22 15:56:28;;;;;;;10.98;10.68;;;22.10;99.90;;;;;;6293502;22;20297;-81
2022/09/22 15:58:59;;;;;;;11.10;10.80;;;22.20;99.90;;;;;;6300907;22;20265;-81
2022/09/22 16:01:28;;;;;;;11.18;10.88;;;22.50;99.90;;;;;;6300125;22;20190;-80
2022/09/22 16:03:58;;;;;;;11.13;10.82;;;22.40;99.90;;;;;;6297157;22;20193;-82